sensor_id;sensor_type;location;lat;lon;timestamp;pressure;altitude;pressure_sealevel;temperature;humidity
15914;BME280;8055;51.930;8.840;2024-03-02T00:00:20;75646.75;;;-145.72;100.00
15914;BME280;8055;51.930;8.840;2024-03-02T00:02:50;75634.31;;;-145.72;100.00
15914;BME280;8055;51.930;8.840;2024-03-02T00:05:18;75644.66;;;-145.72;100.00
15914;BME280;8055;51.930;8.840;2024-03-02T00:07:45;75634.31;;;-145.72;100.00
15914;BME280;8055;51.930;8.840;2024-03-02T00:10:16;75634.31;;;-145.72;100.00
15914;BME280;8055;51.930;8.840;2024-03-02T00:12:46;75628.13;;;-145.72;100.00
15914;BME280;8055;51.930;8.840;2024-03-02T00:18:03;75603.28;;;-145.72;100.00
15914;BME280;8055;51.930;8.840;2024-03-02T00:20:30;75607.44;;;-145.72;100.00
15914;BME280;8055;51.930;8.840;2024-03-02T00:23:09;75609.50;;;-145.72;100.00
15914;BME280;8055;51.930;8.840;2024-03-02T00:25:40;75617.78;;;-145.72;100.00
15914;BME280;8055;51.930;8.840;2024-03-02T00:28:17;75609.50;;;-145.72;100.00
15914;BME280;8055;51.930;8.840;2024-03-02T00:30:54;75597.09;;;-145.72;100.00
15914;BME280;8055;51.930;8.840;2024-03-02T00:33:20;75592.94;;;-145.72;100.00
15914;BME280;8055;51.930;8.840;2024-03-02T00:35:46;75586.72;;;-145.72;100.00
15914;BME280;8055;51.930;8.840;2024-03-02T00:38:13;75584.66;;;-145.72;100.00
15914;BME280;8055;51.930;8.840;2024-03-02T00:40:39;75580.53;;;-145.72;100.00
15914;BME280;8055;51.930;8.840;2024-03-02T00:43:05;75584.66;;;-145.72;100.00
15914;BME280;8055;51.930;8.840;2024-03-02T00:45:30;75584.66;;;-145.72;100.00
15914;BME280;8055;51.930;8.840;2024-03-02T00:47:56;75582.59;;;-145.72;100.00
15914;BME280;8055;51.930;8.840;2024-03-02T00:50:22;75580.53;;;-145.72;100.00
15914;BME280;8055;51.930;8.840;2024-03-02T00:52:47;75576.38;;;-145.72;100.00
15914;BME280;8055;51.930;8.840;2024-03-02T00:55:16;75572.25;;;-145.72;100.00
15914;BME280;8055;51.930;8.840;2024-03-02T00:57:41;75563.97;;;-145.72;100.00
15914;BME280;8055;51.930;8.840;2024-03-02T01:00:07;75563.97;;;-145.72;100.00
15914;BME280;8055;51.930;8.840;2024-03-02T01:02:35;75563.97;;;-145.72;100.00
15914;BME280;8055;51.930;8.840;2024-03-02T01:05:00;75568.13;;;-145.72;100.00
15914;BME280;8055;51.930;8.840;2024-03-02T01:07:26;75568.13;;;-145.72;100.00
15914;BME280;8055;51.930;8.840;2024-03-02T01:09:51;75572.25;;;-145.72;100.00
15914;BME280;8055;51.930;8.840;2024-03-02T01:12:17;75578.47;;;-145.72;100.00
15914;BME280;8055;51.930;8.840;2024-03-02T01:14:42;75580.53;;;-145.72;100.00
15914;BME280;8055;51.930;8.840;2024-03-02T01:17:08;75584.66;;;-145.72;100.00
15914;BME280;8055;51.930;8.840;2024-03-02T01:19:33;75592.94;;;-145.72;100.00
15914;BME280;8055;51.930;8.840;2024-03-02T01:21:58;75590.88;;;-145.72;100.00
15914;BME280;8055;51.930;8.840;2024-03-02T01:24:24;75588.81;;;-145.72;100.00
15914;BME280;8055;51.930;8.840;2024-03-02T01:26:49;75597.09;;;-145.72;100.00
15914;BME280;8055;51.930;8.840;2024-03-02T01:29:15;75603.28;;;-145.72;100.00
15914;BME280;8055;51.930;8.840;2024-03-02T01:31:40;75605.34;;;-145.72;100.00
15914;BME280;8055;51.930;8.840;2024-03-02T01:34:07;75611.56;;;-145.72;100.00
15914;BME280;8055;51.930;8.840;2024-03-02T01:36:33;75619.84;;;-145.72;100.00
15914;BME280;8055;51.930;8.840;2024-03-02T01:38:58;75634.31;;;-145.72;100.00
15914;BME280;8055;51.930;8.840;2024-03-02T01:41:24;75634.31;;;-145.72;100.00
15914;BME280;8055;51.930;8.840;2024-03-02T01:43:49;75638.47;;;-145.72;100.00
15914;BME280;8055;51.930;8.840;2024-03-02T01:46:15;75638.47;;;-145.72;100.00
15914;BME280;8055;51.930;8.840;2024-03-02T01:48:40;75638.47;;;-145.72;100.00
15914;BME280;8055;51.930;8.840;2024-03-02T01:51:06;75636.41;;;-145.72;100.00
15914;BME280;8055;51.930;8.840;2024-03-02T01:53:32;75642.59;;;-145.72;100.00
15914;BME280;8055;51.930;8.840;2024-03-02T01:55:57;75638.47;;;-145.72;100.00
15914;BME280;8055;51.930;8.840;2024-03-02T01:58:23;75628.13;;;-145.72;100.00
15914;BME280;8055;51.930;8.840;2024-03-02T02:00:48;75638.47;;;-145.72;100.00
15914;BME280;8055;51.930;8.840;2024-03-02T02:03:14;75640.53;;;-145.72;100.00
15914;BME280;8055;51.930;8.840;2024-03-02T02:05:42;75630.19;;;-145.72;100.00
15914;BME280;8055;51.930;8.840;2024-03-02T02:08:07;75623.97;;;-145.72;100.00
15914;BME280;8055;51.930;8.840;2024-03-02T02:10:32;75626.06;;;-145.72;100.00
15914;BME280;8055;51.930;8.840;2024-03-02T02:12:58;75630.19;;;-145.72;100.00
15914;BME280;8055;51.930;8.840;2024-03-02T02:15:28;75623.97;;;-145.72;100.00
15914;BME280;8055;51.930;8.840;2024-03-02T02:17:55;75621.91;;;-145.72;100.00
15914;BME280;8055;51.930;8.840;2024-03-02T02:20:21;75626.06;;;-145.72;100.00
15914;BME280;8055;51.930;8.840;2024-03-02T02:22:57;75628.13;;;-145.72;100.00
15914;BME280;8055;51.930;8.840;2024-03-02T02:25:22;75621.91;;;-145.72;100.00
15914;BME280;8055;51.930;8.840;2024-03-02T02:27:48;75621.91;;;-145.72;100.00
15914;BME280;8055;51.930;8.840;2024-03-02T02:30:13;75632.25;;;-145.72;100.00
15914;BME280;8055;51.930;8.840;2024-03-02T02:32:38;75632.25;;;-145.72;100.00
15914;BME280;8055;51.930;8.840;2024-03-02T02:35:04;75638.47;;;-145.72;100.00
15914;BME280;8055;51.930;8.840;2024-03-02T02:37:30;75632.25;;;-145.72;100.00
15914;BME280;8055;51.930;8.840;2024-03-02T02:39:56;75640.53;;;-145.72;100.00
15914;BME280;8055;51.930;8.840;2024-03-02T02:42:21;75642.59;;;-145.72;100.00
15914;BME280;8055;51.930;8.840;2024-03-02T02:44:46;75630.19;;;-145.72;100.00
15914;BME280;8055;51.930;8.840;2024-03-02T02:47:12;75636.41;;;-145.72;100.00
15914;BME280;8055;51.930;8.840;2024-03-02T02:49:37;75640.53;;;-145.72;100.00
15914;BME280;8055;51.930;8.840;2024-03-02T02:52:02;75634.31;;;-145.72;100.00
15914;BME280;8055;51.930;8.840;2024-03-02T02:54:28;75642.59;;;-145.72;100.00
15914;BME280;8055;51.930;8.840;2024-03-02T02:56:53;75640.53;;;-145.72;100.00
15914;BME280;8055;51.930;8.840;2024-03-02T02:59:18;75644.66;;;-145.72;100.00
15914;BME280;8055;51.930;8.840;2024-03-02T03:01:44;75642.59;;;-145.72;100.00
15914;BME280;8055;51.930;8.840;2024-03-02T03:04:09;75644.66;;;-145.72;100.00
15914;BME280;8055;51.930;8.840;2024-03-02T03:06:34;75646.75;;;-145.72;100.00
15914;BME280;8055;51.930;8.840;2024-03-02T03:09:00;75650.88;;;-145.72;100.00
15914;BME280;8055;51.930;8.840;2024-03-02T03:11:25;75659.16;;;-145.72;100.00
15914;BME280;8055;51.930;8.840;2024-03-02T03:13:51;75655.03;;;-145.72;100.00
15914;BME280;8055;51.930;8.840;2024-03-02T03:16:18;75659.16;;;-145.72;100.00
15914;BME280;8055;51.930;8.840;2024-03-02T03:18:43;75652.94;;;-145.72;100.00
15914;BME280;8055;51.930;8.840;2024-03-02T03:21:08;75673.63;;;-145.72;100.00
15914;BME280;8055;51.930;8.840;2024-03-02T03:23:34;75669.50;;;-145.72;100.00
15914;BME280;8055;51.930;8.840;2024-03-02T03:25:59;75671.56;;;-145.72;100.00
15914;BME280;8055;51.930;8.840;2024-03-02T03:28:24;75671.56;;;-145.72;100.00
15914;BME280;8055;51.930;8.840;2024-03-02T03:30:50;75671.56;;;-145.72;100.00
15914;BME280;8055;51.930;8.840;2024-03-02T03:33:18;75671.56;;;-145.72;100.00
15914;BME280;8055;51.930;8.840;2024-03-02T03:35:43;75681.91;;;-145.72;100.00
15914;BME280;8055;51.930;8.840;2024-03-02T03:38:08;75677.78;;;-145.72;100.00
15914;BME280;8055;51.930;8.840;2024-03-02T03:40:34;75679.84;;;-145.72;100.00
15914;BME280;8055;51.930;8.840;2024-03-02T03:42:59;75677.78;;;-145.72;100.00
15914;BME280;8055;51.930;8.840;2024-03-02T03:45:25;75677.78;;;-145.72;100.00
15914;BME280;8055;51.930;8.840;2024-03-02T03:47:52;75669.50;;;-145.72;100.00
15914;BME280;8055;51.930;8.840;2024-03-02T03:50:17;75679.84;;;-145.72;100.00
15914;BME280;8055;51.930;8.840;2024-03-02T03:52:43;75681.91;;;-145.72;100.00
15914;BME280;8055;51.930;8.840;2024-03-02T03:55:09;75681.91;;;-145.72;100.00
15914;BME280;8055;51.930;8.840;2024-03-02T03:57:35;75688.13;;;-145.72;100.00
15914;BME280;8055;51.930;8.840;2024-03-02T04:00:00;75688.13;;;-145.72;100.00
15914;BME280;8055;51.930;8.840;2024-03-02T04:02:26;75692.25;;;-145.72;100.00
15914;BME280;8055;51.930;8.840;2024-03-02T04:04:51;75692.25;;;-145.72;100.00
15914;BME280;8055;51.930;8.840;2024-03-02T04:07:17;75688.13;;;-145.72;100.00
15914;BME280;8055;51.930;8.840;2024-03-02T04:09:42;75686.06;;;-145.72;100.00
15914;BME280;8055;51.930;8.840;2024-03-02T04:12:08;75686.06;;;-145.72;100.00
15914;BME280;8055;51.930;8.840;2024-03-02T04:14:33;75704.69;;;-145.72;100.00
15914;BME280;8055;51.930;8.840;2024-03-02T04:16:58;75706.75;;;-145.72;100.00
15914;BME280;8055;51.930;8.840;2024-03-02T04:19:24;75704.69;;;-145.72;100.00
15914;BME280;8055;51.930;8.840;2024-03-02T04:21:49;75706.75;;;-145.72;100.00
15914;BME280;8055;51.930;8.840;2024-03-02T04:24:14;75710.88;;;-145.72;100.00
15914;BME280;8055;51.930;8.840;2024-03-02T04:26:40;75704.69;;;-145.72;100.00
15914;BME280;8055;51.930;8.840;2024-03-02T04:29:05;75706.75;;;-145.72;100.00
15914;BME280;8055;51.930;8.840;2024-03-02T04:31:30;75712.94;;;-145.72;100.00
15914;BME280;8055;51.930;8.840;2024-03-02T04:33:56;75708.81;;;-145.72;100.00
15914;BME280;8055;51.930;8.840;2024-03-02T04:36:21;75708.81;;;-145.72;100.00
15914;BME280;8055;51.930;8.840;2024-03-02T04:38:46;75708.81;;;-145.72;100.00
15914;BME280;8055;51.930;8.840;2024-03-02T04:41:12;75704.69;;;-145.72;100.00
15914;BME280;8055;51.930;8.840;2024-03-02T04:43:37;75704.69;;;-145.72;100.00
15914;BME280;8055;51.930;8.840;2024-03-02T04:46:03;75706.75;;;-145.72;100.00
15914;BME280;8055;51.930;8.840;2024-03-02T04:48:28;75702.59;;;-145.72;100.00
15914;BME280;8055;51.930;8.840;2024-03-02T04:50:54;75704.69;;;-145.72;100.00
15914;BME280;8055;51.930;8.840;2024-03-02T04:53:19;75704.69;;;-145.72;100.00
15914;BME280;8055;51.930;8.840;2024-03-02T04:55:44;75704.69;;;-145.72;100.00
15914;BME280;8055;51.930;8.840;2024-03-02T04:58:28;75704.69;;;-145.72;100.00
15914;BME280;8055;51.930;8.840;2024-03-02T05:00:53;75708.81;;;-145.72;100.00
15914;BME280;8055;51.930;8.840;2024-03-02T05:03:19;75712.94;;;-145.72;100.00
15914;BME280;8055;51.930;8.840;2024-03-02T05:05:44;75715.03;;;-145.72;100.00
15914;BME280;8055;51.930;8.840;2024-03-02T05:08:10;75715.03;;;-145.72;100.00
15914;BME280;8055;51.930;8.840;2024-03-02T05:10:37;75715.03;;;-145.72;100.00
15914;BME280;8055;51.930;8.840;2024-03-02T05:13:02;75712.94;;;-145.72;100.00
15914;BME280;8055;51.930;8.840;2024-03-02T05:15:28;75719.16;;;-145.72;100.00
15914;BME280;8055;51.930;8.840;2024-03-02T05:17:53;75715.03;;;-145.72;100.00
15914;BME280;8055;51.930;8.840;2024-03-02T05:20:19;75719.16;;;-145.72;100.00
15914;BME280;8055;51.930;8.840;2024-03-02T05:22:44;75725.38;;;-145.72;100.00
15914;BME280;8055;51.930;8.840;2024-03-02T05:25:09;75719.16;;;-145.72;100.00
15914;BME280;8055;51.930;8.840;2024-03-02T05:27:35;75723.31;;;-145.72;100.00
15914;BME280;8055;51.930;8.840;2024-03-02T05:30:01;75723.31;;;-145.72;100.00
15914;BME280;8055;51.930;8.840;2024-03-02T05:32:26;75723.31;;;-145.72;100.00
15914;BME280;8055;51.930;8.840;2024-03-02T05:34:52;75723.31;;;-145.72;100.00
15914;BME280;8055;51.930;8.840;2024-03-02T05:37:17;75725.38;;;-145.72;100.00
15914;BME280;8055;51.930;8.840;2024-03-02T05:39:43;75727.44;;;-145.72;100.00
15914;BME280;8055;51.930;8.840;2024-03-02T05:42:09;75725.38;;;-145.72;100.00
15914;BME280;8055;51.930;8.840;2024-03-02T05:44:38;75733.66;;;-145.72;100.00
15914;BME280;8055;51.930;8.840;2024-03-02T05:47:04;75739.84;;;-145.72;100.00
15914;BME280;8055;51.930;8.840;2024-03-02T05:49:29;75733.66;;;-145.72;100.00
15914;BME280;8055;51.930;8.840;2024-03-02T05:51:55;75744.00;;;-145.72;100.00
15914;BME280;8055;51.930;8.840;2024-03-02T05:54:20;75746.06;;;-145.72;100.00
15914;BME280;8055;51.930;8.840;2024-03-02T05:56:46;75731.56;;;-145.72;100.00
15914;BME280;8055;51.930;8.840;2024-03-02T05:59:11;75750.19;;;-145.72;100.00
15914;BME280;8055;51.930;8.840;2024-03-02T06:01:43;75756.41;;;-145.72;100.00
15914;BME280;8055;51.930;8.840;2024-03-02T06:04:09;75756.41;;;-145.72;100.00
15914;BME280;8055;51.930;8.840;2024-03-02T06:06:35;75764.69;;;-145.72;100.00
15914;BME280;8055;51.930;8.840;2024-03-02T06:09:01;75754.34;;;-145.72;100.00
15914;BME280;8055;51.930;8.840;2024-03-02T06:11:28;75758.47;;;-145.72;100.00
15914;BME280;8055;51.930;8.840;2024-03-02T06:13:53;75758.47;;;-145.72;100.00
15914;BME280;8055;51.930;8.840;2024-03-02T06:16:18;75758.47;;;-145.72;100.00
15914;BME280;8055;51.930;8.840;2024-03-02T06:18:43;75756.41;;;-145.72;100.00
15914;BME280;8055;51.930;8.840;2024-03-02T06:21:09;75756.41;;;-145.72;100.00
15914;BME280;8055;51.930;8.840;2024-03-02T06:23:34;75754.34;;;-145.72;100.00
15914;BME280;8055;51.930;8.840;2024-03-02T06:26:00;75756.41;;;-145.72;100.00
15914;BME280;8055;51.930;8.840;2024-03-02T06:28:27;75756.41;;;-145.72;100.00
15914;BME280;8055;51.930;8.840;2024-03-02T06:30:52;75758.47;;;-145.72;100.00
15914;BME280;8055;51.930;8.840;2024-03-02T06:33:18;75768.81;;;-145.72;100.00
15914;BME280;8055;51.930;8.840;2024-03-02T06:35:43;75770.88;;;-145.72;100.00
15914;BME280;8055;51.930;8.840;2024-03-02T06:38:08;75770.88;;;-145.72;100.00
15914;BME280;8055;51.930;8.840;2024-03-02T06:40:34;75772.97;;;-145.72;100.00
15914;BME280;8055;51.930;8.840;2024-03-02T06:42:59;75766.75;;;-145.72;100.00
15914;BME280;8055;51.930;8.840;2024-03-02T06:45:25;75766.75;;;-145.72;100.00
15914;BME280;8055;51.930;8.840;2024-03-02T06:47:50;75760.53;;;-145.72;100.00
15914;BME280;8055;51.930;8.840;2024-03-02T06:50:15;75760.53;;;-145.72;100.00
15914;BME280;8055;51.930;8.840;2024-03-02T06:52:41;75750.19;;;-145.72;100.00
15914;BME280;8055;51.930;8.840;2024-03-02T06:55:07;75754.34;;;-145.72;100.00
15914;BME280;8055;51.930;8.840;2024-03-02T06:57:32;75746.06;;;-145.72;100.00
15914;BME280;8055;51.930;8.840;2024-03-02T06:59:58;75733.66;;;-145.72;100.00
15914;BME280;8055;51.930;8.840;2024-03-02T07:02:26;75731.56;;;-145.72;100.00
15914;BME280;8055;51.930;8.840;2024-03-02T07:04:53;75721.22;;;-145.72;100.00
15914;BME280;8055;51.930;8.840;2024-03-02T07:07:18;75723.31;;;-145.72;100.00
15914;BME280;8055;51.930;8.840;2024-03-02T07:09:43;75717.09;;;-145.72;100.00
15914;BME280;8055;51.930;8.840;2024-03-02T07:12:09;75723.31;;;-145.72;100.00
15914;BME280;8055;51.930;8.840;2024-03-02T07:14:35;75717.09;;;-145.72;100.00
15914;BME280;8055;51.930;8.840;2024-03-02T07:17:19;75715.03;;;-145.72;100.00
15914;BME280;8055;51.930;8.840;2024-03-02T07:19:44;75719.16;;;-145.72;100.00
15914;BME280;8055;51.930;8.840;2024-03-02T07:22:09;75717.09;;;-145.72;100.00
15914;BME280;8055;51.930;8.840;2024-03-02T07:24:41;75717.09;;;-145.72;100.00
15914;BME280;8055;51.930;8.840;2024-03-02T07:27:07;75706.75;;;-145.72;100.00
15914;BME280;8055;51.930;8.840;2024-03-02T07:29:33;75712.94;;;-145.72;100.00
15914;BME280;8055;51.930;8.840;2024-03-02T07:31:58;75715.03;;;-145.72;100.00
15914;BME280;8055;51.930;8.840;2024-03-02T07:34:23;75719.16;;;-145.72;100.00
15914;BME280;8055;51.930;8.840;2024-03-02T07:36:49;75706.75;;;-145.72;100.00
15914;BME280;8055;51.930;8.840;2024-03-02T07:39:14;75700.53;;;-145.72;100.00
15914;BME280;8055;51.930;8.840;2024-03-02T07:41:39;75694.34;;;-145.72;100.00
15914;BME280;8055;51.930;8.840;2024-03-02T07:44:05;75675.72;;;-145.72;100.00
15914;BME280;8055;51.930;8.840;2024-03-02T07:46:30;75667.44;;;-145.72;100.00
15914;BME280;8055;51.930;8.840;2024-03-02T07:48:56;75650.88;;;-145.72;100.00
15914;BME280;8055;51.930;8.840;2024-03-02T07:51:21;75640.53;;;-145.72;100.00
15914;BME280;8055;51.930;8.840;2024-03-02T07:53:46;75632.25;;;-145.72;100.00
15914;BME280;8055;51.930;8.840;2024-03-02T07:56:12;75632.25;;;-145.72;100.00
15914;BME280;8055;51.930;8.840;2024-03-02T07:58:37;75628.13;;;-145.72;100.00
15914;BME280;8055;51.930;8.840;2024-03-02T08:01:03;75623.97;;;-145.72;100.00
15914;BME280;8055;51.930;8.840;2024-03-02T08:03:29;75617.78;;;-145.72;100.00
15914;BME280;8055;51.930;8.840;2024-03-02T08:05:54;75609.50;;;-145.72;100.00
15914;BME280;8055;51.930;8.840;2024-03-02T08:08:19;75613.63;;;-145.72;100.00
15914;BME280;8055;51.930;8.840;2024-03-02T08:10:45;75609.50;;;-145.72;100.00
15914;BME280;8055;51.930;8.840;2024-03-02T08:13:10;75611.56;;;-145.72;100.00
15914;BME280;8055;51.930;8.840;2024-03-02T08:15:35;75609.50;;;-145.72;100.00
15914;BME280;8055;51.930;8.840;2024-03-02T08:18:01;75613.63;;;-145.72;100.00
15914;BME280;8055;51.930;8.840;2024-03-02T08:20:26;75617.78;;;-145.72;100.00
15914;BME280;8055;51.930;8.840;2024-03-02T08:22:52;75613.63;;;-145.72;100.00
15914;BME280;8055;51.930;8.840;2024-03-02T08:25:20;75607.44;;;-145.72;100.00
15914;BME280;8055;51.930;8.840;2024-03-02T08:27:46;75597.09;;;-145.72;100.00
15914;BME280;8055;51.930;8.840;2024-03-02T08:30:11;75592.94;;;-145.72;100.00
15914;BME280;8055;51.930;8.840;2024-03-02T08:32:37;75590.88;;;-145.72;100.00
15914;BME280;8055;51.930;8.840;2024-03-02T08:35:03;75590.88;;;-145.72;100.00
15914;BME280;8055;51.930;8.840;2024-03-02T08:37:29;75576.38;;;-145.72;100.00
15914;BME280;8055;51.930;8.840;2024-03-02T08:39:54;75570.19;;;-145.72;100.00
15914;BME280;8055;51.930;8.840;2024-03-02T08:42:20;75555.69;;;-145.72;100.00
15914;BME280;8055;51.930;8.840;2024-03-02T08:44:45;75543.28;;;-145.72;100.00
15914;BME280;8055;51.930;8.840;2024-03-02T08:47:10;75535.00;;;-145.72;100.00
15914;BME280;8055;51.930;8.840;2024-03-02T08:49:36;75524.66;;;-145.72;100.00
15914;BME280;8055;51.930;8.840;2024-03-02T08:52:01;75518.44;;;-145.72;100.00
15914;BME280;8055;51.930;8.840;2024-03-02T08:54:26;75501.91;;;-145.72;100.00
15914;BME280;8055;51.930;8.840;2024-03-02T08:56:53;75495.69;;;-145.72;100.00
15914;BME280;8055;51.930;8.840;2024-03-02T08:59:18;75477.06;;;-145.72;100.00
15914;BME280;8055;51.930;8.840;2024-03-02T09:01:44;75462.59;;;-145.72;100.00
15914;BME280;8055;51.930;8.840;2024-03-02T09:04:10;75452.25;;;-145.72;100.00
15914;BME280;8055;51.930;8.840;2024-03-02T09:06:35;75433.63;;;-145.72;100.00
15914;BME280;8055;51.930;8.840;2024-03-02T09:09:01;75427.41;;;-145.72;100.00
15914;BME280;8055;51.930;8.840;2024-03-02T09:11:26;75406.72;;;-145.72;100.00
15914;BME280;8055;51.930;8.840;2024-03-02T09:13:51;75400.50;;;-145.72;100.00
15914;BME280;8055;51.930;8.840;2024-03-02T09:16:18;75383.97;;;-145.72;100.00
15914;BME280;8055;51.930;8.840;2024-03-02T09:18:43;75373.63;;;-145.72;100.00
15914;BME280;8055;51.930;8.840;2024-03-02T09:21:09;75357.06;;;-145.72;94.28
15914;BME280;8055;51.930;8.840;2024-03-02T09:23:34;75348.78;;;-145.72;93.90
15914;BME280;8055;51.930;8.840;2024-03-02T09:25:59;75336.38;;;-145.72;93.73
15914;BME280;8055;51.930;8.840;2024-03-02T09:28:25;75323.97;;;-145.72;93.46
15914;BME280;8055;51.930;8.840;2024-03-02T09:30:50;75311.56;;;-145.72;94.37
15914;BME280;8055;51.930;8.840;2024-03-02T09:33:15;75303.28;;;-145.72;91.36
15914;BME280;8055;51.930;8.840;2024-03-02T09:35:41;75305.34;;;-145.72;89.08
15914;BME280;8055;51.930;8.840;2024-03-02T09:38:06;75297.06;;;-145.72;91.59
15914;BME280;8055;51.930;8.840;2024-03-02T09:40:32;75286.72;;;-145.72;88.26
15914;BME280;8055;51.930;8.840;2024-03-02T09:42:57;75272.25;;;-145.72;90.13
15914;BME280;8055;51.930;8.840;2024-03-02T09:45:24;75272.25;;;-145.72;87.32
15914;BME280;8055;51.930;8.840;2024-03-02T09:47:50;75266.03;;;-145.72;89.55
15914;BME280;8055;51.930;8.840;2024-03-02T09:50:16;75249.47;;;-145.72;87.76
15914;BME280;8055;51.930;8.840;2024-03-02T09:52:48;75224.66;;;-145.72;89.26
15914;BME280;8055;51.930;8.840;2024-03-02T09:55:13;75218.44;;;-145.72;85.11
15914;BME280;8055;51.930;8.840;2024-03-02T09:57:41;75203.97;;;-145.72;86.82
15914;BME280;8055;51.930;8.840;2024-03-02T10:00:08;75195.69;;;-145.72;83.63
15914;BME280;8055;51.930;8.840;2024-03-02T10:02:33;75187.41;;;-145.72;85.57
15914;BME280;8055;51.930;8.840;2024-03-02T10:04:59;75179.13;;;-145.72;83.66
15914;BME280;8055;51.930;8.840;2024-03-02T10:07:24;75172.94;;;-145.72;83.87
15914;BME280;8055;51.930;8.840;2024-03-02T10:09:49;75166.72;;;-145.72;81.78
15914;BME280;8055;51.930;8.840;2024-03-02T10:12:17;75162.59;;;-145.72;82.52
15914;BME280;8055;51.930;8.840;2024-03-02T10:14:43;75148.09;;;-145.72;81.05
15914;BME280;8055;51.930;8.840;2024-03-02T10:17:12;75141.91;;;-145.72;83.68
15914;BME280;8055;51.930;8.840;2024-03-02T10:19:38;75129.47;;;-145.72;81.42
15914;BME280;8055;51.930;8.840;2024-03-02T10:22:09;75125.34;;;-145.72;82.02
15914;BME280;8055;51.930;8.840;2024-03-02T10:24:42;75102.59;;;-145.72;81.74
15914;BME280;8055;51.930;8.840;2024-03-02T10:27:17;75098.44;;;-145.72;80.72
15914;BME280;8055;51.930;8.840;2024-03-02T10:29:45;75096.38;;;-145.72;79.47
15914;BME280;8055;51.930;8.840;2024-03-02T10:32:11;75081.91;;;-145.72;78.71
15914;BME280;8055;51.930;8.840;2024-03-02T10:34:39;75069.47;;;-145.72;80.55
15914;BME280;8055;51.930;8.840;2024-03-02T10:37:05;75067.41;;;-145.72;77.55
15914;BME280;8055;51.930;8.840;2024-03-02T10:39:31;75065.34;;;-145.72;78.43
15914;BME280;8055;51.930;8.840;2024-03-02T10:41:57;75050.88;;;-145.72;77.90
15914;BME280;8055;51.930;8.840;2024-03-02T10:44:23;75061.22;;;-145.72;75.99
15914;BME280;8055;51.930;8.840;2024-03-02T10:46:51;75036.38;;;-145.72;77.60
15914;BME280;8055;51.930;8.840;2024-03-02T10:49:18;75021.91;;;-145.72;77.45
15914;BME280;8055;51.930;8.840;2024-03-02T10:51:44;75001.22;;;-145.72;75.26
15914;BME280;8055;51.930;8.840;2024-03-02T10:54:09;74980.53;;;-145.72;78.77
15914;BME280;8055;51.930;8.840;2024-03-02T10:56:43;74970.19;;;-145.72;77.61
15914;BME280;8055;51.930;8.840;2024-03-02T10:59:35;74959.84;;;-145.72;75.64
15914;BME280;8055;51.930;8.840;2024-03-02T11:02:03;74959.84;;;-145.72;73.47
15914;BME280;8055;51.930;8.840;2024-03-02T11:04:30;74963.97;;;-145.72;72.70
15914;BME280;8055;51.930;8.840;2024-03-02T11:07:07;74953.63;;;-145.72;72.09
15914;BME280;8055;51.930;8.840;2024-03-02T11:09:34;74943.28;;;-145.72;73.21
15914;BME280;8055;51.930;8.840;2024-03-02T11:14:43;74935.00;;;-145.72;69.92
15914;BME280;8055;51.930;8.840;2024-03-02T11:17:09;74932.94;;;-145.72;69.10
15914;BME280;8055;51.930;8.840;2024-03-02T11:19:38;74926.72;;;-145.72;69.54
15914;BME280;8055;51.930;8.840;2024-03-02T11:22:04;74908.13;;;-145.72;68.74
15914;BME280;8055;51.930;8.840;2024-03-02T11:24:31;74899.84;;;-145.72;68.63
15914;BME280;8055;51.930;8.840;2024-03-02T11:27:03;74895.69;;;-145.72;69.25
15914;BME280;8055;51.930;8.840;2024-03-02T11:34:34;74862.59;;;-145.72;69.25
15914;BME280;8055;51.930;8.840;2024-03-02T11:37:04;74854.31;;;-145.72;70.79
15914;BME280;8055;51.930;8.840;2024-03-02T11:39:30;74848.13;;;-145.72;67.63
15914;BME280;8055;51.930;8.840;2024-03-02T11:41:56;74837.78;;;-145.72;66.19
15914;BME280;8055;51.930;8.840;2024-03-02T11:44:22;74815.03;;;-145.72;69.85
15914;BME280;8055;51.930;8.840;2024-03-02T11:47:01;74798.47;;;-145.72;68.35
15914;BME280;8055;51.930;8.840;2024-03-02T11:49:49;74790.19;;;-145.72;67.33
15914;BME280;8055;51.930;8.840;2024-03-02T11:52:16;74781.91;;;-145.72;65.60
15914;BME280;8055;51.930;8.840;2024-03-02T11:54:45;74771.56;;;-145.72;67.03
15914;BME280;8055;51.930;8.840;2024-03-02T11:57:19;74755.03;;;-145.72;67.95
15914;BME280;8055;51.930;8.840;2024-03-02T11:59:45;74767.44;;;-145.72;63.82
15914;BME280;8055;51.930;8.840;2024-03-02T12:02:18;74740.56;;;-145.72;65.82
15914;BME280;8055;51.930;8.840;2024-03-02T12:04:44;74734.34;;;-145.72;65.52
15914;BME280;8055;51.930;8.840;2024-03-02T12:07:10;74728.13;;;-145.72;66.52
15914;BME280;8055;51.930;8.840;2024-03-02T12:09:36;74748.81;;;-145.72;63.81
15914;BME280;8055;51.930;8.840;2024-03-02T12:12:06;74752.97;;;-145.72;63.09
15914;BME280;8055;51.930;8.840;2024-03-02T12:14:33;74755.03;;;-145.72;63.17
15914;BME280;8055;51.930;8.840;2024-03-02T12:16:59;74732.28;;;-145.72;64.36
15914;BME280;8055;51.930;8.840;2024-03-02T12:19:26;74711.59;;;-145.72;62.17
15914;BME280;8055;51.930;8.840;2024-03-02T12:21:52;74705.38;;;-145.72;64.01
15914;BME280;8055;51.930;8.840;2024-03-02T12:24:18;74724.00;;;-145.72;62.88
15914;BME280;8055;51.930;8.840;2024-03-02T12:26:44;74750.88;;;-145.72;63.53
15914;BME280;8055;51.930;8.840;2024-03-02T12:29:10;74784.00;;;-145.72;62.29
15914;BME280;8055;51.930;8.840;2024-03-02T12:31:36;74761.22;;;-145.72;64.75
15914;BME280;8055;51.930;8.840;2024-03-02T12:34:03;74750.88;;;-145.72;62.96
15914;BME280;8055;51.930;8.840;2024-03-02T12:36:29;74719.88;;;-145.72;64.18
15914;BME280;8055;51.930;8.840;2024-03-02T12:38:54;74690.91;;;-145.72;61.79
15914;BME280;8055;51.930;8.840;2024-03-02T12:41:20;74686.75;;;-145.72;60.21
15914;BME280;8055;51.930;8.840;2024-03-02T12:43:45;74655.72;;;-145.72;60.27
15914;BME280;8055;51.930;8.840;2024-03-02T12:46:11;74653.66;;;-145.72;59.09
15914;BME280;8055;51.930;8.840;2024-03-02T12:48:37;74624.69;;;-145.72;60.15